Time;durP1;ratioP1;P1;durP2;ratioP2;P2;SDS_P1;SDS_P2;PMS_P1;PMS_P2;Temp;Humidity;BMP_temperature;BMP_pressure;BME280_temperature;BME280_humidity;BME280_pressure;Samples;Min_cycle;Max_cycle;Signal;HPM_P1;HPM_P2
2020/12/30 00:00:35;;;;;;;3.55;2.13;;;24.20;30.30;;;;;;5045446;28;20468;-45
2020/12/30 00:03:01;;;;;;;2.92;1.90;;;24.20;30.30;;;;;;5044416;28;20429;-41
2020/12/30 00:05:26;;;;;;;3.28;2.30;;;24.20;30.30;;;;;;5043931;28;20065;-46
2020/12/30 00:07:52;;;;;;;3.80;2.42;;;24.20;30.30;;;;;;5045208;28;20449;-46
2020/12/30 00:10:20;;;;;;;3.50;2.10;;;24.20;30.40;;;;;;5039887;28;20664;-46
2020/12/30 00:12:46;;;;;;;3.40;2.28;;;24.20;30.40;;;;;;5042734;28;20025;-44
2020/12/30 00:15:13;;;;;;;2.55;2.20;;;24.10;30.30;;;;;;5048548;28;20049;-44
2020/12/30 00:17:40;;;;;;;4.15;2.05;;;24.20;30.40;;;;;;5052992;28;20047;-51
2020/12/30 00:20:08;;;;;;;2.75;1.98;;;24.10;30.40;;;;;;5044207;28;20071;-45
2020/12/30 00:22:34;;;;;;;3.28;2.03;;;24.10;30.40;;;;;;5045561;28;20029;-47
2020/12/30 00:24:59;;;;;;;3.58;2.13;;;24.10;30.40;;;;;;5041297;28;20449;-43
2020/12/30 00:27:25;;;;;;;2.47;1.90;;;24.10;30.40;;;;;;5045345;28;20680;-45
2020/12/30 00:29:51;;;;;;;3.60;1.88;;;24.10;30.50;;;;;;5048437;28;20032;-45
2020/12/30 00:32:17;;;;;;;2.95;2.17;;;24.00;30.40;;;;;;5047695;28;20021;-47
2020/12/30 00:34:43;;;;;;;3.05;1.98;;;24.00;30.50;;;;;;5046391;28;20029;-46
2020/12/30 00:37:12;;;;;;;2.70;2.38;;;24.00;30.60;;;;;;5047231;28;20025;-45
2020/12/30 00:39:38;;;;;;;2.58;1.90;;;24.00;30.60;;;;;;5048046;28;20052;-46
2020/12/30 00:42:04;;;;;;;2.65;1.90;;;24.00;30.60;;;;;;5048020;28;20037;-44
2020/12/30 00:44:31;;;;;;;2.20;1.95;;;24.00;30.70;;;;;;5029232;28;20040;-45
2020/12/30 00:46:58;;;;;;;2.30;1.80;;;23.90;30.60;;;;;;5023925;28;20066;-46
2020/12/30 00:49:25;;;;;;;3.28;1.83;;;23.90;30.60;;;;;;5025610;28;20032;-46
2020/12/30 00:51:53;;;;;;;4.20;2.30;;;23.90;30.60;;;;;;5045215;28;20032;-43
2020/12/30 00:54:20;;;;;;;3.05;2.08;;;23.90;30.70;;;;;;5026506;28;20059;-46
2020/12/30 00:56:46;;;;;;;2.53;2.00;;;23.90;30.70;;;;;;5042515;28;20040;-50
2020/12/30 00:59:14;;;;;;;2.63;1.83;;;23.90;30.70;;;;;;5037845;28;20041;-45
2020/12/30 01:01:41;;;;;;;3.10;1.88;;;23.90;30.70;;;;;;5025515;28;20040;-48
2020/12/30 01:04:42;;;;;;;4.95;2.08;;;23.80;30.60;;;;;;4983565;28;20034;-45
2020/12/30 01:07:08;;;;;;;3.20;1.95;;;23.80;30.60;;;;;;5014145;28;20052;-47
2020/12/30 01:09:34;;;;;;;2.55;1.83;;;23.80;30.60;;;;;;5041315;28;20048;-47
2020/12/30 01:12:02;;;;;;;2.63;1.90;;;23.80;30.70;;;;;;5040782;28;20021;-46
2020/12/30 01:14:28;;;;;;;3.65;2.08;;;23.80;30.70;;;;;;5046696;28;20039;-44
2020/12/30 01:16:54;;;;;;;2.67;1.90;;;23.70;30.60;;;;;;5031664;28;20126;-48
2020/12/30 01:19:21;;;;;;;2.92;2.22;;;23.70;30.70;;;;;;5040654;28;20048;-46
2020/12/30 01:21:47;;;;;;;2.35;1.98;;;23.70;30.70;;;;;;5044538;28;20368;-47
2020/12/30 01:24:13;;;;;;;3.20;2.33;;;23.70;30.70;;;;;;5046988;28;20521;-44
2020/12/30 01:26:39;;;;;;;3.90;2.15;;;23.70;30.70;;;;;;5049616;28;20037;-44
2020/12/30 01:29:06;;;;;;;2.58;2.00;;;23.60;30.70;;;;;;5046354;28;20346;-48
2020/12/30 01:31:32;;;;;;;2.85;2.03;;;23.60;30.70;;;;;;5047988;28;20033;-47
2020/12/30 01:33:59;;;;;;;3.47;1.90;;;23.60;30.70;;;;;;5047855;28;20425;-49
2020/12/30 01:36:25;;;;;;;4.20;2.50;;;23.60;30.80;;;;;;5045078;28;20492;-48
2020/12/30 01:38:52;;;;;;;5.03;2.10;;;23.70;30.80;;;;;;5040189;28;20038;-48
2020/12/30 01:41:18;;;;;;;2.20;1.75;;;23.60;30.80;;;;;;5021462;28;20086;-47
2020/12/30 01:44:07;;;;;;;2.58;1.75;;;23.60;30.80;;;;;;5023128;28;20021;-46
2020/12/30 01:46:34;;;;;;;2.97;1.90;;;23.60;30.80;;;;;;5044342;28;20429;-46
2020/12/30 01:49:02;;;;;;;3.08;2.00;;;23.50;30.80;;;;;;5044538;28;20444;-44
2020/12/30 01:51:29;;;;;;;2.65;1.92;;;23.50;30.80;;;;;;5041728;28;20025;-48
2020/12/30 01:53:56;;;;;;;3.47;1.95;;;23.50;30.80;;;;;;5048533;28;20035;-49
2020/12/30 01:56:26;;;;;;;3.47;2.15;;;23.50;30.80;;;;;;5051584;28;20039;-48
2020/12/30 01:58:52;;;;;;;2.42;1.70;;;23.50;30.90;;;;;;5049966;28;20045;-47
2020/12/30 02:01:22;;;;;;;2.85;2.00;;;23.50;30.90;;;;;;5053490;28;20025;-50
2020/12/30 02:03:49;;;;;;;3.13;1.92;;;23.50;30.90;;;;;;5052462;28;20040;-52
2020/12/30 02:06:14;;;;;;;3.75;2.05;;;23.50;30.90;;;;;;5052242;28;20021;-46
2020/12/30 02:08:40;;;;;;;2.92;1.85;;;23.50;30.90;;;;;;5053950;28;21630;-48
2020/12/30 02:11:06;;;;;;;2.75;2.15;;;23.40;30.90;;;;;;5048489;28;20425;-44
2020/12/30 02:13:32;;;;;;;2.25;1.77;;;23.40;30.90;;;;;;5054173;28;20033;-45
2020/12/30 02:16:00;;;;;;;2.25;1.70;;;23.40;30.90;;;;;;5050431;28;20052;-43
2020/12/30 02:18:26;;;;;;;2.03;1.65;;;23.40;31.00;;;;;;5053897;28;20406;-46
2020/12/30 02:20:52;;;;;;;2.70;1.80;;;23.40;31.00;;;;;;5051257;28;20040;-45
2020/12/30 02:23:19;;;;;;;6.90;1.98;;;23.30;30.90;;;;;;5051273;28;20453;-46
2020/12/30 02:25:45;;;;;;;2.70;2.20;;;23.30;30.90;;;;;;5052685;28;20037;-45
2020/12/30 02:28:13;;;;;;;2.90;2.28;;;23.30;30.90;;;;;;5053816;28;20124;-49
2020/12/30 02:30:39;;;;;;;2.83;2.15;;;23.30;30.90;;;;;;5050209;28;20182;-46
2020/12/30 02:33:08;;;;;;;3.15;2.00;;;23.30;31.00;;;;;;5034872;28;20152;-46
2020/12/30 02:35:35;;;;;;;3.35;2.08;;;23.30;31.00;;;;;;5051814;28;20122;-44
2020/12/30 02:38:01;;;;;;;2.85;2.03;;;23.30;31.00;;;;;;5053040;28;20068;-44
2020/12/30 02:40:26;;;;;;;2.70;2.00;;;23.30;31.00;;;;;;5050791;28;20133;-50
2020/12/30 02:42:52;;;;;;;2.80;1.95;;;23.20;30.90;;;;;;5052928;28;20031;-46
2020/12/30 02:45:19;;;;;;;2.47;2.10;;;23.20;31.00;;;;;;5053009;28;20373;-44
2020/12/30 02:47:44;;;;;;;2.80;2.25;;;23.20;31.00;;;;;;5052296;28;20456;-44
2020/12/30 02:50:10;;;;;;;2.55;1.70;;;23.20;31.00;;;;;;5053126;28;20033;-45
2020/12/30 02:52:36;;;;;;;2.85;1.92;;;23.20;31.00;;;;;;5053383;28;20044;-47
2020/12/30 02:55:02;;;;;;;3.13;2.20;;;23.20;31.00;;;;;;5051395;28;20035;-44
2020/12/30 02:57:28;;;;;;;2.80;1.90;;;23.10;30.90;;;;;;5049995;28;20385;-43
2020/12/30 02:59:56;;;;;;;2.70;2.05;;;23.10;31.00;;;;;;5053185;28;20139;-48
2020/12/30 03:02:24;;;;;;;3.08;2.20;;;23.10;31.00;;;;;;5051735;28;20416;-45
2020/12/30 03:04:50;;;;;;;2.67;2.00;;;23.10;31.00;;;;;;5051769;28;20124;-45
2020/12/30 03:07:16;;;;;;;2.92;2.08;;;23.10;31.00;;;;;;5050068;28;20021;-46
2020/12/30 03:09:42;;;;;;;2.85;2.30;;;23.10;31.10;;;;;;5052638;28;20470;-45
2020/12/30 03:12:08;;;;;;;3.42;1.80;;;23.10;31.10;;;;;;5050289;28;20056;-47
2020/12/30 03:14:34;;;;;;;3.05;2.30;;;23.10;31.10;;;;;;5053516;28;20037;-46
2020/12/30 03:16:59;;;;;;;3.08;2.15;;;23.10;31.10;;;;;;5049630;28;20090;-45
2020/12/30 03:19:25;;;;;;;3.15;2.15;;;23.00;31.10;;;;;;5036161;28;20085;-45
2020/12/30 03:21:52;;;;;;;2.65;2.08;;;23.00;31.10;;;;;;5048419;28;20163;-46
2020/12/30 03:24:18;;;;;;;3.22;1.90;;;23.00;31.10;;;;;;5054547;28;20048;-45
2020/12/30 03:26:44;;;;;;;2.72;2.00;;;23.00;31.10;;;;;;5040071;28;20025;-42
2020/12/30 03:29:10;;;;;;;3.60;2.00;;;23.00;31.10;;;;;;5053981;28;20161;-46
2020/12/30 03:31:36;;;;;;;2.30;1.90;;;23.00;31.10;;;;;;5050438;28;20024;-45
2020/12/30 03:34:02;;;;;;;2.28;2.00;;;23.00;31.10;;;;;;5054217;28;20033;-45
2020/12/30 03:36:27;;;;;;;2.30;1.90;;;22.90;31.00;;;;;;5051760;28;20020;-46
2020/12/30 03:38:53;;;;;;;2.47;2.05;;;22.90;31.10;;;;;;5051936;28;20345;-45
2020/12/30 03:41:19;;;;;;;1.90;1.70;;;22.90;31.10;;;;;;5040732;28;20437;-44
2020/12/30 03:43:45;;;;;;;3.78;1.88;;;22.90;31.10;;;;;;5040459;28;20026;-42
2020/12/30 03:46:10;;;;;;;2.35;1.58;;;22.90;31.10;;;;;;5037196;28;20508;-49
2020/12/30 03:48:36;;;;;;;2.85;2.08;;;22.90;31.10;;;;;;5053563;28;20029;-47
2020/12/30 03:51:02;;;;;;;2.80;2.22;;;22.90;31.70;;;;;;5035156;28;20142;-46
2020/12/30 03:53:28;;;;;;;3.60;1.83;;;22.90;31.10;;;;;;5052075;28;20029;-46
2020/12/30 03:55:54;;;;;;;2.58;2.08;;;22.90;31.10;;;;;;5053965;28;20045;-50
2020/12/30 03:58:20;;;;;;;3.80;1.80;;;22.80;31.10;;;;;;5049437;28;20079;-46
2020/12/30 04:00:46;;;;;;;2.80;2.17;;;22.80;31.10;;;;;;5051940;28;20349;-45
2020/12/30 04:03:12;;;;;;;2.15;1.65;;;22.80;31.20;;;;;;5053149;28;20040;-47
2020/12/30 04:05:38;;;;;;;2.13;1.83;;;22.80;31.20;;;;;;5054011;28;20032;-47
2020/12/30 04:08:04;;;;;;;2.15;1.80;;;22.80;31.20;;;;;;5051828;28;20436;-45
2020/12/30 04:10:30;;;;;;;2.20;1.55;;;22.80;31.20;;;;;;5053890;28;20065;-46
2020/12/30 04:12:56;;;;;;;2.70;2.10;;;22.80;31.20;;;;;;5028255;28;20040;-46
2020/12/30 04:15:21;;;;;;;3.28;1.92;;;22.70;31.20;;;;;;5034563;28;20025;-48
2020/12/30 04:17:47;;;;;;;2.15;1.85;;;22.70;31.20;;;;;;5046367;28;20032;-46
2020/12/30 04:20:13;;;;;;;3.13;2.05;;;22.70;31.20;;;;;;5049040;28;20064;-48
2020/12/30 04:22:39;;;;;;;2.92;2.08;;;22.70;31.20;;;;;;5045011;28;20048;-46
2020/12/30 04:25:05;;;;;;;2.30;1.80;;;22.70;31.20;;;;;;5054159;28;20171;-46
2020/12/30 04:27:30;;;;;;;2.10;1.90;;;22.70;31.20;;;;;;5038491;28;20388;-44
2020/12/30 04:29:56;;;;;;;2.53;1.90;;;22.70;31.30;;;;;;5026121;28;20074;-46
2020/12/30 04:32:22;;;;;;;2.38;1.88;;;22.70;31.20;;;;;;5047692;28;20313;-44
2020/12/30 04:34:48;;;;;;;3.33;2.00;;;22.70;31.20;;;;;;5046623;28;20039;-46
2020/12/30 04:37:13;;;;;;;2.15;1.92;;;22.70;31.20;;;;;;5052847;28;20040;-47
2020/12/30 04:39:40;;;;;;;3.10;2.05;;;22.70;31.30;;;;;;5053655;28;20518;-45
2020/12/30 04:42:06;;;;;;;3.08;2.30;;;22.70;31.30;;;;;;5040745;28;20368;-44
2020/12/30 04:44:34;;;;;;;3.55;1.95;;;22.60;31.20;;;;;;5057551;28;20041;-46
2020/12/30 04:47:02;;;;;;;2.25;1.60;;;22.60;31.30;;;;;;5056660;28;20032;-46
2020/12/30 04:49:28;;;;;;;2.45;1.95;;;22.60;31.30;;;;;;5048708;28;20033;-46
2020/12/30 04:51:55;;;;;;;2.30;1.90;;;22.60;31.30;;;;;;5052304;28;20036;-45
2020/12/30 04:54:23;;;;;;;4.20;2.10;;;22.60;31.30;;;;;;5050094;28;20345;-47
2020/12/30 04:57:02;;;;;;;2.75;1.92;;;22.60;31.30;;;;;;5037205;28;20040;-50
2020/12/30 04:59:41;;;;;;;2.78;1.85;;;22.60;31.30;;;;;;5054631;28;20041;-47
2020/12/30 05:02:12;;;;;;;3.85;2.13;;;22.60;31.30;;;;;;5057237;28;20033;-45
2020/12/30 05:04:39;;;;;;;2.92;1.90;;;22.60;31.30;;;;;;5032918;28;20052;-44
2020/12/30 05:07:13;;;;;;;2.55;1.90;;;22.50;31.30;;;;;;5052440;28;20029;-48
2020/12/30 05:09:42;;;;;;;2.20;1.88;;;22.50;31.30;;;;;;5043265;28;20025;-46
2020/12/30 05:12:18;;;;;;;2.67;2.15;;;22.50;31.30;;;;;;5056932;28;20043;-48
2020/12/30 05:14:44;;;;;;;3.35;2.10;;;22.50;31.30;;;;;;5043542;28;20115;-44
2020/12/30 05:17:12;;;;;;;2.13;1.80;;;22.50;31.30;;;;;;5056709;28;20041;-44
2020/12/30 05:19:38;;;;;;;2.83;1.90;;;22.50;31.30;;;;;;5054241;28;20379;-48
2020/12/30 05:22:04;;;;;;;2.70;2.17;;;22.50;31.30;;;;;;5037207;28;20057;-45
2020/12/30 05:24:31;;;;;;;2.15;1.90;;;22.40;31.30;;;;;;5054130;28;20162;-47
2020/12/30 05:26:58;;;;;;;2.38;1.92;;;22.40;31.30;;;;;;5043031;28;20123;-45
2020/12/30 05:29:25;;;;;;;2.58;1.92;;;22.40;31.30;;;;;;5051644;28;20044;-48
2020/12/30 05:31:52;;;;;;;3.08;2.13;;;22.40;31.30;;;;;;5056392;28;20234;-45
2020/12/30 05:34:19;;;;;;;2.47;1.80;;;22.40;31.30;;;;;;5055059;28;20047;-46
2020/12/30 05:36:52;;;;;;;2.55;2.00;;;22.40;31.30;;;;;;5052261;28;20448;-46
2020/12/30 05:39:32;;;;;;;3.28;2.22;;;22.40;31.30;;;;;;5054922;28;20040;-44
2020/12/30 05:42:16;;;;;;;2.45;2.05;;;22.40;31.30;;;;;;5047519;28;20037;-47
2020/12/30 05:44:43;;;;;;;2.33;1.83;;;22.40;31.30;;;;;;5053383;28;20455;-44
2020/12/30 05:47:23;;;;;;;2.63;2.00;;;22.40;31.40;;;;;;5048303;28;20377;-47
2020/12/30 05:49:51;;;;;;;3.40;2.13;;;22.40;31.40;;;;;;5054269;28;20030;-43
2020/12/30 05:52:18;;;;;;;2.55;1.95;;;22.40;31.40;;;;;;5052246;28;20050;-46
2020/12/30 05:54:56;;;;;;;3.00;2.03;;;22.30;31.30;;;;;;5054605;28;20200;-48
2020/12/30 05:57:29;;;;;;;2.75;1.77;;;22.30;31.30;;;;;;5056663;28;20044;-45
2020/12/30 05:59:59;;;;;;;2.37;1.53;;;22.30;31.30;;;;;;5038712;28;20037;-45
2020/12/30 06:02:29;;;;;;;2.67;2.05;;;22.30;31.30;;;;;;5037071;28;20441;-43
2020/12/30 06:05:19;;;;;;;3.03;1.88;;;22.30;31.40;;;;;;5055070;28;20029;-47
2020/12/30 06:07:47;;;;;;;2.67;1.80;;;22.30;31.40;;;;;;5051827;28;20100;-46
2020/12/30 06:10:15;;;;;;;3.50;1.90;;;22.30;31.40;;;;;;5051990;28;20029;-46
2020/12/30 06:12:53;;;;;;;2.25;1.80;;;22.30;31.40;;;;;;5054872;28;20028;-44
2020/12/30 06:15:21;;;;;;;2.72;1.70;;;22.20;31.30;;;;;;5055294;28;20107;-49
2020/12/30 06:17:57;;;;;;;2.75;1.98;;;22.20;31.40;;;;;;5045231;28;20041;-45
2020/12/30 06:20:31;;;;;;;3.00;2.03;;;22.20;31.40;;;;;;5044834;28;20044;-48
2020/12/30 06:23:03;;;;;;;2.10;1.88;;;22.20;31.40;;;;;;5053492;28;20099;-42
2020/12/30 06:25:32;;;;;;;2.60;1.85;;;22.20;31.40;;;;;;5047771;28;20360;-45
2020/12/30 06:28:11;;;;;;;2.67;1.88;;;22.20;31.40;;;;;;5053736;28;20444;-44
2020/12/30 06:30:38;;;;;;;2.40;1.80;;;22.20;31.40;;;;;;5054666;28;20032;-44
2020/12/30 06:33:05;;;;;;;2.95;1.80;;;22.20;31.50;;;;;;5054375;28;20062;-46
2020/12/30 06:35:33;;;;;;;2.90;1.98;;;22.20;31.50;;;;;;5054964;28;20060;-45
2020/12/30 06:38:16;;;;;;;3.53;1.73;;;22.20;31.50;;;;;;5050128;28;20021;-45
2020/12/30 06:41:00;;;;;;;3.78;2.03;;;22.10;31.40;;;;;;5036445;28;20130;-46
2020/12/30 06:43:41;;;;;;;2.92;2.05;;;22.10;31.50;;;;;;5052279;28;20044;-46
2020/12/30 06:46:11;;;;;;;3.15;2.17;;;22.10;31.50;;;;;;5050736;28;20329;-43
2020/12/30 06:48:54;;;;;;;2.38;1.90;;;22.10;31.50;;;;;;5051715;28;20033;-44
2020/12/30 06:51:20;;;;;;;3.50;2.20;;;22.10;31.50;;;;;;5053792;28;20103;-43
2020/12/30 06:53:51;;;;;;;2.75;2.20;;;22.10;31.50;;;;;;5055013;28;20123;-45
2020/12/30 06:56:34;;;;;;;4.53;2.58;;;22.10;31.50;;;;;;5052740;28;20116;-44
2020/12/30 06:59:01;;;;;;;2.73;2.10;;;22.10;31.50;;;;;;5018332;28;20041;-46
2020/12/30 07:01:27;;;;;;;4.68;2.45;;;22.10;31.50;;;;;;5035661;28;20033;-43
2020/12/30 07:03:52;;;;;;;4.95;2.25;;;22.10;31.50;;;;;;5035135;28;20408;-47
2020/12/30 07:06:31;;;;;;;6.85;2.83;;;22.10;31.50;;;;;;5054345;28;20033;-45
2020/12/30 07:08:59;;;;;;;4.70;2.95;;;22.10;31.50;;;;;;5037751;28;20033;-47
2020/12/30 07:11:50;;;;;;;4.75;2.65;;;22.10;31.50;;;;;;5034926;28;20034;-43
2020/12/30 07:14:18;;;;;;;4.32;2.40;;;22.00;31.40;;;;;;5053126;28;20343;-46
2020/12/30 07:16:48;;;;;;;4.60;2.47;;;22.00;31.40;;;;;;5052759;28;20098;-46
2020/12/30 07:19:28;;;;;;;3.17;2.40;;;22.00;31.40;;;;;;5050199;28;20053;-46
2020/12/30 07:22:07;;;;;;;5.38;2.60;;;22.00;31.40;;;;;;5054367;28;20037;-49
2020/12/30 07:24:53;;;;;;;5.47;2.63;;;22.00;31.40;;;;;;5054172;28;20403;-44
2020/12/30 07:27:21;;;;;;;4.68;2.63;;;22.00;31.30;;;;;;5050714;28;20387;-45
2020/12/30 07:29:48;;;;;;;5.78;3.03;;;22.00;31.30;;;;;;5036058;28;20036;-43
2020/12/30 07:32:15;;;;;;;4.80;2.80;;;22.00;31.40;;;;;;5051414;28;20392;-46
2020/12/30 07:34:43;;;;;;;4.75;3.13;;;22.00;31.40;;;;;;5051316;28;20356;-44
2020/12/30 07:37:11;;;;;;;7.50;3.75;;;21.90;31.30;;;;;;5053569;28;20158;-45
2020/12/30 07:39:39;;;;;;;5.90;3.03;;;21.90;31.30;;;;;;5046635;28;20052;-50
2020/12/30 07:42:06;;;;;;;4.80;2.72;;;21.90;31.30;;;;;;5052329;28;20112;-49
2020/12/30 07:44:31;;;;;;;4.47;2.75;;;21.90;31.30;;;;;;5046001;28;20025;-43
2020/12/30 07:47:05;;;;;;;7.30;3.15;;;21.90;31.30;;;;;;5038701;28;20029;-44
2020/12/30 07:49:32;;;;;;;6.67;3.33;;;21.90;31.30;;;;;;5053759;28;20091;-43
2020/12/30 07:52:00;;;;;;;5.13;2.72;;;21.90;31.40;;;;;;5053842;28;20042;-47
2020/12/30 07:54:27;;;;;;;6.38;3.08;;;21.90;31.40;;;;;;5049034;28;20032;-45
2020/12/30 07:57:03;;;;;;;5.68;2.90;;;21.90;31.40;;;;;;5052388;28;20067;-42
2020/12/30 07:59:30;;;;;;;9.60;3.92;;;21.90;31.40;;;;;;5050503;28;20033;-49
2020/12/30 08:02:11;;;;;;;7.25;3.38;;;21.90;31.70;;;;;;5051576;28;20037;-46
2020/12/30 08:04:39;;;;;;;7.53;3.30;;;21.90;32.20;;;;;;5046051;28;20375;-44
2020/12/30 08:07:10;;;;;;;5.13;3.08;;;21.90;32.40;;;;;;5049333;28;20121;-50
2020/12/30 08:09:38;;;;;;;4.53;2.65;;;21.90;32.60;;;;;;5034115;28;20037;-47
2020/12/30 08:12:06;;;;;;;7.50;2.97;;;22.00;32.70;;;;;;5037653;28;20021;-43
2020/12/30 08:14:36;;;;;;;5.05;3.17;;;22.00;32.60;;;;;;5034939;28;20061;-48
2020/12/30 08:17:07;;;;;;;4.93;2.70;;;22.00;32.50;;;;;;5044979;28;20495;-47
2020/12/30 08:19:33;;;;;;;6.80;3.17;;;22.10;32.40;;;;;;5050466;28;20049;-47
2020/12/30 08:22:07;;;;;;;6.68;2.72;;;22.20;32.30;;;;;;5057342;28;20461;-45
2020/12/30 08:24:41;;;;;;;8.65;3.28;;;22.20;32.90;;;;;;5053972;28;20100;-48
2020/12/30 08:27:08;;;;;;;9.40;3.40;;;22.30;32.20;;;;;;5037598;28;20337;-47
2020/12/30 08:29:37;;;;;;;6.88;2.83;;;22.30;32.20;;;;;;5039747;28;20187;-45
2020/12/30 08:32:07;;;;;;;6.53;3.45;;;22.40;32.10;;;;;;5054861;28;20044;-47
2020/12/30 08:34:41;;;;;;;7.55;3.05;;;22.40;32.70;;;;;;5051626;28;20089;-49
2020/12/30 08:37:11;;;;;;;;;;;22.50;32.00;;;;;;5057461;28;20340;-47
2020/12/30 08:39:44;;;;;;;5.38;2.67;;;22.50;31.90;;;;;;5056421;28;19924;-47
2020/12/30 08:42:34;;;;;;;4.82;2.65;;;22.60;31.90;;;;;;5056638;28;20029;-47
2020/12/30 08:45:03;;;;;;;4.15;2.80;;;22.60;31.70;;;;;;5040957;28;20048;-50
2020/12/30 08:47:37;;;;;;;4.57;2.78;;;22.70;31.70;;;;;;5056349;28;20033;-44
2020/12/30 08:50:08;;;;;;;4.88;2.28;;;22.70;31.50;;;;;;5043039;28;20108;-47
2020/12/30 08:52:43;;;;;;;3.83;2.42;;;22.80;31.50;;;;;;5056044;28;20029;-46
2020/12/30 08:55:10;;;;;;;4.38;2.92;;;22.80;31.30;;;;;;5050906;28;20078;-46
2020/12/30 08:57:42;;;;;;;4.03;2.55;;;22.90;31.30;;;;;;5042691;28;20041;-46
2020/12/30 09:00:19;;;;;;;4.68;2.75;;;22.90;31.20;;;;;;5037958;28;20045;-44
2020/12/30 09:02:47;;;;;;;4.18;2.17;;;23.00;31.10;;;;;;5052272;28;20475;-48
2020/12/30 09:05:24;;;;;;;4.53;2.58;;;23.00;31.00;;;;;;5052557;28;20021;-53
2020/12/30 09:07:50;;;;;;;2.63;1.98;;;23.10;31.00;;;;;;5019484;28;20040;-47
2020/12/30 09:10:16;;;;;;;4.82;1.85;;;23.10;30.90;;;;;;5039805;28;20024;-48
2020/12/30 09:12:42;;;;;;;6.28;2.58;;;23.20;30.90;;;;;;5049827;28;20091;-46
2020/12/30 09:15:08;;;;;;;3.20;2.10;;;23.20;30.80;;;;;;5038070;28;20064;-48
2020/12/30 09:17:34;;;;;;;2.72;1.92;;;23.20;30.70;;;;;;5056693;28;20033;-47
2020/12/30 09:20:16;;;;;;;3.28;1.88;;;23.30;30.60;;;;;;5055191;28;20055;-49
2020/12/30 09:22:44;;;;;;;4.63;2.05;;;23.30;30.60;;;;;;5036500;28;20034;-44
2020/12/30 09:25:26;;;;;;;3.47;2.20;;;23.30;30.50;;;;;;5037197;28;20099;-51
2020/12/30 09:27:52;;;;;;;3.78;2.00;;;23.40;30.40;;;;;;5044369;28;20045;-52
2020/12/30 09:30:20;;;;;;;3.28;1.83;;;23.40;30.40;;;;;;5045594;28;20025;-47
2020/12/30 09:32:47;;;;;;;2.78;1.77;;;23.40;30.40;;;;;;5035833;28;20044;-49
2020/12/30 09:35:18;;;;;;;3.60;1.63;;;23.50;30.30;;;;;;5036568;28;20064;-48
2020/12/30 09:37:52;;;;;;;2.97;1.98;;;23.50;30.20;;;;;;5050703;28;20033;-49
2020/12/30 09:40:18;;;;;;;3.58;2.15;;;23.60;30.20;;;;;;5055348;28;20048;-45
2020/12/30 09:42:45;;;;;;;2.80;1.70;;;23.60;30.10;;;;;;5052945;28;20037;-49
2020/12/30 09:45:13;;;;;;;2.92;1.83;;;23.60;30.70;;;;;;5056011;28;20033;-47
2020/12/30 09:47:40;;;;;;;5.45;2.13;;;23.60;30.00;;;;;;5055461;28;20084;-49
2020/12/30 09:50:09;;;;;;;2.75;1.83;;;23.70;30.00;;;;;;5055736;28;20420;-47
2020/12/30 09:52:39;;;;;;;3.17;1.80;;;23.70;30.00;;;;;;5050601;28;20036;-47
2020/12/30 09:55:06;;;;;;;2.95;2.05;;;23.70;30.00;;;;;;5054184;28;20064;-47
2020/12/30 09:57:33;;;;;;;2.80;1.73;;;23.70;30.00;;;;;;5054725;28;20036;-50
2020/12/30 10:00:00;;;;;;;1.98;1.50;;;23.80;30.00;;;;;;5054032;28;20037;-45
2020/12/30 10:02:26;;;;;;;2.10;1.40;;;23.80;29.90;;;;;;5054647;28;20067;-45
2020/12/30 10:04:52;;;;;;;4.13;2.05;;;23.80;29.90;;;;;;5053235;28;20109;-49
2020/12/30 10:07:19;;;;;;;2.72;1.67;;;23.90;29.90;;;;;;5055274;28;20120;-46
2020/12/30 10:09:44;;;;;;;2.60;1.70;;;23.90;29.80;;;;;;5051553;28;20500;-63
2020/12/30 10:12:10;;;;;;;2.88;1.50;;;23.90;29.80;;;;;;5034926;28;20021;-53
2020/12/30 10:14:38;;;;;;;2.03;1.20;;;23.90;29.60;;;;;;5049478;28;20017;-52
2020/12/30 10:17:06;;;;;;;2.30;1.60;;;23.90;29.70;;;;;;5052804;28;20089;-50
2020/12/30 10:19:32;;;;;;;4.28;1.58;;;23.90;29.80;;;;;;5052434;28;20103;-54
2020/12/30 10:21:58;;;;;;;2.20;1.20;;;23.90;29.80;;;;;;5052220;28;20443;-55
2020/12/30 10:24:24;;;;;;;3.45;1.35;;;23.90;29.80;;;;;;5050851;28;20036;-49
2020/12/30 10:26:50;;;;;;;2.35;1.38;;;24.00;29.80;;;;;;5047819;28;20028;-50
2020/12/30 10:29:16;;;;;;;2.50;1.52;;;24.00;29.80;;;;;;5051217;28;20341;-57
2020/12/30 10:31:41;;;;;;;4.10;1.70;;;24.00;29.70;;;;;;5050569;28;20029;-57
2020/12/30 10:34:07;;;;;;;3.60;1.65;;;24.00;29.70;;;;;;5029405;28;20451;-47
2020/12/30 10:36:33;;;;;;;2.22;1.50;;;24.00;29.70;;;;;;5053227;28;20039;-53
2020/12/30 10:39:03;;;;;;;3.65;1.63;;;24.10;30.10;;;;;;5050923;28;20036;-48
2020/12/30 10:41:29;;;;;;;3.08;1.63;;;24.10;29.70;;;;;;5046325;28;20024;-50
2020/12/30 10:43:55;;;;;;;2.17;1.42;;;24.10;29.60;;;;;;5049420;28;20065;-56
2020/12/30 10:46:21;;;;;;;3.20;1.80;;;24.10;29.60;;;;;;5049162;28;20075;-53
2020/12/30 10:48:48;;;;;;;1.80;1.42;;;24.10;29.60;;;;;;5052082;28;20029;-52
2020/12/30 10:51:16;;;;;;;2.63;1.88;;;24.20;29.60;;;;;;5051866;28;20056;-50
2020/12/30 10:53:42;;;;;;;2.03;1.23;;;24.20;29.50;;;;;;5046891;28;20402;-53
2020/12/30 10:56:12;;;;;;;1.98;1.48;;;24.20;29.50;;;;;;5051669;28;20036;-55
2020/12/30 10:58:41;;;;;;;2.38;1.30;;;24.20;29.50;;;;;;5050905;28;20033;-58
2020/12/30 11:01:11;;;;;;;2.00;1.30;;;24.30;29.50;;;;;;5050858;28;20072;-54
2020/12/30 11:03:38;;;;;;;2.88;1.40;;;24.30;29.50;;;;;;5034369;28;20106;-51
2020/12/30 11:06:05;;;;;;;3.13;1.48;;;24.30;29.50;;;;;;5051303;28;20017;-55
2020/12/30 11:08:32;;;;;;;2.45;1.30;;;24.30;29.50;;;;;;5050010;28;20029;-53
2020/12/30 11:11:03;;;;;;;3.90;1.50;;;24.30;29.40;;;;;;5031363;28;20024;-50
2020/12/30 11:13:29;;;;;;;2.10;1.52;;;24.30;29.40;;;;;;5051332;28;20064;-49
2020/12/30 11:15:55;;;;;;;2.67;1.45;;;24.30;29.40;;;;;;5052627;28;20063;-51
2020/12/30 11:18:22;;;;;;;2.45;1.55;;;24.40;29.40;;;;;;5050687;28;20024;-53
2020/12/30 11:20:49;;;;;;;5.70;1.40;;;24.40;29.40;;;;;;5051064;28;20057;-51
2020/12/30 11:23:15;;;;;;;3.65;1.30;;;24.40;29.50;;;;;;5048709;28;20483;-48
2020/12/30 11:25:42;;;;;;;4.13;1.20;;;24.40;29.70;;;;;;5051553;28;20047;-57
2020/12/30 11:28:08;;;;;;;1.60;1.15;;;24.40;29.80;;;;;;5050205;28;20100;-51
2020/12/30 11:30:33;;;;;;;3.95;1.50;;;24.40;29.90;;;;;;5048306;28;20125;-50
2020/12/30 11:32:59;;;;;;;4.05;1.40;;;24.40;30.00;;;;;;5047510;28;20344;-55
2020/12/30 11:35:26;;;;;;;4.22;1.48;;;24.40;29.90;;;;;;5051676;28;20086;-52
2020/12/30 11:37:52;;;;;;;3.17;1.60;;;24.40;29.80;;;;;;5052158;28;20033;-50
2020/12/30 11:40:18;;;;;;;4.55;1.50;;;24.40;29.90;;;;;;5049516;28;20180;-48
2020/12/30 11:42:44;;;;;;;3.08;1.38;;;24.40;29.90;;;;;;5051403;28;20037;-49
2020/12/30 11:45:10;;;;;;;1.63;1.50;;;24.40;30.00;;;;;;5048204;28;20090;-47
2020/12/30 11:47:36;;;;;;;2.35;1.58;;;24.40;29.90;;;;;;5048635;28;20432;-47
2020/12/30 11:50:03;;;;;;;3.60;1.50;;;24.40;29.90;;;;;;5034666;28;20033;-53
2020/12/30 11:52:29;;;;;;;2.67;1.70;;;24.40;29.90;;;;;;5053135;28;20436;-57
2020/12/30 11:54:55;;;;;;;2.28;1.63;;;24.40;30.00;;;;;;5056250;28;20044;-51
2020/12/30 11:57:21;;;;;;;5.65;1.63;;;24.40;30.00;;;;;;5054983;28;20078;-48
2020/12/30 11:59:47;;;;;;;2.58;1.67;;;24.40;30.00;;;;;;5052947;28;20349;-55
2020/12/30 12:02:13;;;;;;;3.42;1.58;;;24.40;30.60;;;;;;5045823;28;20120;-54
2020/12/30 12:04:39;;;;;;;2.40;1.52;;;24.40;30.00;;;;;;5051940;28;20060;-45
2020/12/30 12:07:05;;;;;;;3.78;1.95;;;24.40;30.00;;;;;;5051177;28;20427;-51
2020/12/30 12:09:31;;;;;;;2.42;1.52;;;24.40;30.00;;;;;;5048993;28;20422;-48
2020/12/30 12:12:00;;;;;;;3.78;1.50;;;24.40;29.90;;;;;;5042451;28;20341;-54
2020/12/30 12:14:27;;;;;;;1.95;1.30;;;24.40;29.90;;;;;;5050842;28;20049;-51
2020/12/30 12:16:54;;;;;;;2.97;1.40;;;24.40;29.90;;;;;;5043488;28;20381;-55
2020/12/30 12:19:20;;;;;;;2.28;1.35;;;24.40;29.90;;;;;;5052826;28;20052;-55
2020/12/30 12:21:46;;;;;;;1.92;1.20;;;24.40;29.90;;;;;;5054832;28;20029;-58
2020/12/30 12:24:13;;;;;;;1.70;1.20;;;24.40;29.80;;;;;;5055838;28;20044;-48
2020/12/30 12:26:39;;;;;;;1.20;1.10;;;24.40;29.80;;;;;;5054650;28;20340;-57
2020/12/30 12:29:35;;;;;;;1.92;1.30;;;24.40;29.80;;;;;;5056390;28;20025;-54
2020/12/30 12:32:20;;;;;;;2.17;1.30;;;24.40;29.80;;;;;;5043484;28;20460;-52
2020/12/30 12:34:49;;;;;;;2.20;1.30;;;24.40;29.70;;;;;;5043685;28;20037;-58
2020/12/30 12:37:16;;;;;;;4.35;1.30;;;24.30;29.70;;;;;;5049180;28;20056;-49
2020/12/30 12:39:45;;;;;;;1.98;1.27;;;24.30;29.90;;;;;;5037734;28;20372;-48
2020/12/30 12:42:11;;;;;;;1.73;1.25;;;24.30;30.00;;;;;;5052025;28;20032;-50
2020/12/30 12:44:38;;;;;;;1.90;1.20;;;24.30;29.90;;;;;;5047988;28;20159;-61
2020/12/30 12:47:04;;;;;;;1.85;1.40;;;24.30;29.90;;;;;;5056296;28;20033;-48
2020/12/30 12:49:30;;;;;;;1.77;1.38;;;24.40;30.10;;;;;;5049475;28;20032;-46
2020/12/30 12:51:57;;;;;;;1.95;1.42;;;24.40;30.00;;;;;;5038988;28;20337;-52
2020/12/30 12:54:23;;;;;;;2.08;1.42;;;24.40;29.80;;;;;;5054143;28;20483;-56